Time;durP1;ratioP1;P1;durP2;ratioP2;P2;SDS_P1;SDS_P2;PMS_P1;PMS_P2;Temp;Humidity;BMP_temperature;BMP_pressure;BME280_temperature;BME280_humidity;BME280_pressure;Samples;Min_cycle;Max_cycle;Signal;HPM_P1;HPM_P2
2022/01/30 00:02:44;;;;;;;1.57;1.10;;;;;;;5.53;71.61;97502.03;6278545;28;20222;-75
2022/01/30 00:05:46;;;;;;;2.77;1.40;;;;;;;5.67;71.54;97516.88;6279637;28;20785;-75
2022/01/30 00:08:48;;;;;;;1.50;1.30;;;;;;;5.65;71.67;97526.59;6279201;28;20602;-76
2022/01/30 00:11:55;;;;;;;1.60;1.30;;;;;;;5.69;71.76;97526.31;6261538;28;20254;-77
2022/01/30 00:14:58;;;;;;;2.20;1.37;;;;;;;5.71;71.87;97513.13;6278871;28;20558;-75
2022/01/30 00:18:10;;;;;;;1.70;1.33;;;;;;;5.84;71.17;97519.25;6278255;28;20237;-76
2022/01/30 00:21:38;;;;;;;2.90;1.77;;;;;;;5.78;71.27;97551.94;6278720;28;20725;-77
2022/01/30 00:24:47;;;;;;;2.77;1.97;;;;;;;5.67;71.90;97540.44;6279905;28;20604;-77
2022/01/30 00:28:00;;;;;;;1.70;1.20;;;;;;;5.72;71.63;97513.03;6244697;28;20597;-77
2022/01/30 00:31:02;;;;;;;1.50;1.40;;;;;;;5.65;71.96;97530.06;6268525;28;20739;-77
2022/01/30 00:34:06;;;;;;;2.87;1.50;;;;;;;5.58;71.91;97526.16;6260424;28;20222;-77
2022/01/30 00:37:08;;;;;;;1.27;1.17;;;;;;;5.62;72.03;97561.66;6261168;28;20228;-76
2022/01/30 00:40:10;;;;;;;4.77;1.27;;;;;;;5.67;72.67;97583.19;6260707;28;20279;-76
2022/01/30 00:43:13;;;;;;;1.43;1.33;;;;;;;5.75;72.15;97574.84;6260874;28;20446;-75
2022/01/30 00:46:15;;;;;;;1.23;1.13;;;;;;;5.66;72.74;97578.88;6277034;28;20226;-77
2022/01/30 00:49:17;;;;;;;1.53;1.13;;;;;;;5.50;72.56;97570.28;6243904;28;20230;-75
2022/01/30 00:52:19;;;;;;;1.50;1.40;;;;;;;5.41;74.35;97597.84;6278780;28;20238;-77
2022/01/30 00:55:24;;;;;;;1.50;1.40;;;;;;;5.54;73.27;97579.63;6283709;28;20241;-74
2022/01/30 00:58:26;;;;;;;1.87;1.30;;;;;;;5.51;72.99;97551.84;6261753;28;20235;-76
2022/01/30 01:01:28;;;;;;;1.97;1.47;;;;;;;5.48;72.68;97574.78;6232847;28;20702;-76
2022/01/30 01:04:30;;;;;;;2.63;1.70;;;;;;;5.42;73.66;97573.38;6260607;28;20218;-77
2022/01/30 01:07:33;;;;;;;1.83;1.17;;;;;;;5.56;72.52;97617.03;6277633;28;20317;-75
2022/01/30 01:10:54;;;;;;;3.83;1.37;;;;;;;5.51;72.36;97577.19;6259932;28;20242;-76
2022/01/30 01:14:14;;;;;;;1.73;1.40;;;;;;;5.52;72.62;97605.88;6260930;28;20230;-75
2022/01/30 01:24:00;;;;;;;1.97;1.40;;;;;;;5.54;72.30;97590.94;6259810;28;20226;-75
2022/01/30 01:27:02;;;;;;;2.50;1.40;;;;;;;5.54;72.63;97590.94;6268520;28;20238;-75
2022/01/30 01:30:04;;;;;;;1.30;1.20;;;;;;;5.37;73.25;97588.53;6271842;28;20224;-76
2022/01/30 01:33:06;;;;;;;1.90;1.40;;;;;;;5.37;73.46;97587.69;6260558;28;20682;-77
2022/01/30 01:36:08;;;;;;;1.23;1.13;;;;;;;5.43;72.67;97597.75;6275517;28;20234;-77
2022/01/30 01:39:10;;;;;;;1.53;1.23;;;;;;;5.42;73.04;97591.69;6280486;28;20238;-76
2022/01/30 01:42:15;;;;;;;2.13;1.43;;;;;;;5.51;72.06;97564.94;6259186;28;20218;-76
2022/01/30 01:45:22;;;;;;;2.63;1.60;;;;;;;5.47;72.46;97555.63;6260114;28;20198;-75
2022/01/30 01:48:25;;;;;;;1.87;1.30;;;;;;;5.57;72.68;97564.59;6279201;28;20258;-75
2022/01/30 01:51:30;;;;;;;1.97;1.27;;;;;;;5.60;72.70;97534.72;6276780;28;20224;-77
2022/01/30 01:54:34;;;;;;;1.37;1.27;;;;;;;5.56;72.56;97541.97;6278262;28;20246;-76
2022/01/30 01:57:36;;;;;;;1.53;1.23;;;;;;;5.48;72.58;97525.06;6269068;28;20686;-76
2022/01/30 02:00:43;;;;;;;1.40;1.30;;;;;;;5.49;72.53;97531.97;6248130;28;20227;-76
2022/01/30 02:03:45;;;;;;;2.00;1.40;;;;;;;5.68;72.46;97508.94;6262976;28;20245;-76
2022/01/30 02:06:49;;;;;;;2.30;1.20;;;;;;;5.72;72.77;97515.66;6280234;28;20478;-75
2022/01/30 02:09:51;;;;;;;1.63;1.03;;;;;;;5.87;71.45;97521.69;6282588;28;20690;-75
2022/01/30 02:12:56;;;;;;;1.40;1.00;;;;;;;5.85;71.60;97506.06;6279963;28;20235;-77
2022/01/30 02:26:02;;;;;;;0.93;0.90;;;;;;;5.97;70.62;97516.75;6267012;28;20652;-74
2022/01/30 02:29:05;;;;;;;1.20;1.03;;;;;;;6.03;71.41;97492.75;6284150;28;20227;-76
2022/01/30 02:32:07;;;;;;;0.97;0.80;;;;;;;6.11;70.39;97485.22;6264680;28;20230;-75
2022/01/30 02:35:09;;;;;;;0.67;0.67;;;;;;;6.05;70.79;97499.59;6276195;28;20242;-75
2022/01/30 02:38:15;;;;;;;1.00;0.80;;;;;;;5.97;71.45;97490.53;6293907;28;20223;-75
2022/01/30 02:41:17;;;;;;;1.30;0.70;;;;;;;5.98;70.99;97490.44;6267890;28;20711;-75
2022/01/30 02:47:54;;;;;;;1.10;0.77;;;;;;;6.05;71.53;97455.06;6266323;28;20249;-73
2022/01/30 02:51:08;;;;;;;0.90;0.90;;;;;;;6.05;70.89;97454.22;6264804;28;20234;-76
2022/01/30 02:54:11;;;;;;;1.53;0.70;;;;;;;6.06;71.05;97459.34;6264204;28;20253;-76
2022/01/30 02:57:13;;;;;;;0.63;0.63;;;;;;;6.07;71.77;97453.19;6263921;28;20211;-75
2022/01/30 03:00:16;;;;;;;0.77;0.60;;;;;;;6.04;71.29;97431.56;6259229;28;20409;-75
2022/01/30 03:03:17;;;;;;;0.70;0.70;;;;;;;5.94;72.44;97439.19;6277384;28;20237;-75
2022/01/30 03:06:20;;;;;;;1.47;0.73;;;;;;;6.03;72.27;97414.19;6243351;28;20226;-75
2022/01/30 03:09:22;;;;;;;1.77;0.73;;;;;;;6.03;71.75;97446.44;6243103;28;20222;-73
2022/01/30 03:12:24;;;;;;;1.10;0.73;;;;;;;6.02;72.11;97415.94;6259481;28;20299;-76
2022/01/30 03:15:26;;;;;;;0.90;0.70;;;;;;;5.91;72.09;97419.28;6242983;28;20222;-75
2022/01/30 03:18:31;;;;;;;1.13;0.70;;;;;;;5.99;72.22;97428.44;6280698;28;20234;-74
2022/01/30 03:21:33;;;;;;;0.70;0.70;;;;;;;5.96;72.82;97420.75;6263583;28;20305;-74
2022/01/30 03:24:37;;;;;;;0.60;0.60;;;;;;;5.95;72.47;97419.94;6269846;28;20221;-75
2022/01/30 03:27:52;;;;;;;0.70;0.60;;;;;;;5.97;72.14;97446.03;6242942;28;20625;-74
2022/01/30 03:31:06;;;;;;;0.50;0.50;;;;;;;6.03;72.69;97437.75;6257246;28;20234;-74
2022/01/30 03:34:15;;;;;;;1.07;0.70;;;;;;;6.13;71.60;97478.13;6259827;28;20226;-74
2022/01/30 03:37:27;;;;;;;1.50;0.90;;;;;;;6.11;71.83;97414.50;6279758;28;20316;-74
2022/01/30 03:40:29;;;;;;;0.80;0.80;;;;;;;6.18;71.65;97418.41;6278329;28;20316;-74
2022/01/30 03:43:31;;;;;;;1.20;0.60;;;;;;;6.16;71.87;97443.88;6280246;28;20215;-74
2022/01/30 03:46:34;;;;;;;1.07;0.77;;;;;;;6.17;71.66;97425.44;6261909;28;20234;-74
2022/01/30 03:49:56;;;;;;;0.97;0.53;;;;;;;6.11;72.13;97435.47;6261630;28;20639;-74
2022/01/30 03:52:59;;;;;;;0.80;0.60;;;;;;;6.04;72.59;97444.66;6261510;28;20234;-74
2022/01/30 03:56:01;;;;;;;1.57;0.77;;;;;;;6.08;71.68;97435.69;6261875;28;20227;-73
2022/01/30 03:59:05;;;;;;;0.80;0.60;;;;;;;6.07;71.75;97449.72;6262728;28;20225;-74
2022/01/30 04:02:08;;;;;;;0.50;0.50;;;;;;;6.13;71.81;97417.84;6262033;28;20231;-74
2022/01/30 04:05:11;;;;;;;0.60;0.60;;;;;;;6.20;72.09;97434.84;6260706;28;20230;-74
2022/01/30 04:08:15;;;;;;;0.50;0.50;;;;;;;6.19;73.22;97482.94;6279160;28;20588;-74
2022/01/30 04:11:38;;;;;;;0.50;0.50;;;;;;;6.04;74.45;97465.63;6279038;28;20249;-74
2022/01/30 04:14:54;;;;;;;0.40;0.40;;;;;;;5.93;75.91;97448.84;6277993;28;20235;-75
2022/01/30 04:18:06;;;;;;;0.40;0.40;;;;;;;5.79;76.71;97456.69;6260396;28;20257;-73
2022/01/30 04:21:11;;;;;;;1.50;0.60;;;;;;;5.72;77.28;97450.19;6277646;28;20401;-75
2022/01/30 04:24:39;;;;;;;1.00;0.80;;;;;;;5.69;77.34;97444.34;6254347;28;20245;-74
2022/01/30 04:27:56;;;;;;;0.70;0.70;;;;;;;5.63;79.23;97437.69;6269275;28;20227;-75
2022/01/30 04:31:06;;;;;;;1.13;1.07;;;;;;;5.56;79.01;97455.59;6273699;28;20262;-75
2022/01/30 04:34:23;;;;;;;1.23;0.90;;;;;;;5.53;79.60;97455.75;6229918;28;20234;-74
2022/01/30 04:38:01;;;;;;;0.87;0.70;;;;;;;5.46;79.90;97453.66;6260864;28;20231;-73
2022/01/30 04:42:07;;;;;;;0.90;0.60;;;;;;;5.41;79.67;97451.31;6261687;28;20231;-74
2022/01/30 05:06:09;;;;;;;0.83;0.70;;;;;;;5.25;80.09;97455.00;6259653;28;20223;-73
2022/01/30 05:09:29;;;;;;;1.33;0.77;;;;;;;5.24;80.27;97442.84;6277144;28;20225;-74
2022/01/30 05:12:51;;;;;;;0.87;0.67;;;;;;;5.23;79.82;97465.53;6261589;28;20226;-73
2022/01/30 05:16:02;;;;;;;1.23;0.70;;;;;;;5.33;77.51;97452.72;6278705;28;20243;-73
2022/01/30 05:19:34;;;;;;;0.53;0.50;;;;;;;5.41;77.49;97437.38;6265298;28;20265;-73
2022/01/30 05:23:08;;;;;;;0.40;0.40;;;;;;;5.44;77.50;97435.41;6230707;28;20292;-74
2022/01/30 05:26:27;;;;;;;0.57;0.53;;;;;;;5.48;76.17;97451.78;6245334;28;20219;-74
2022/01/30 05:29:49;;;;;;;2.20;0.57;;;;;;;5.48;76.97;97477.94;6260197;28;20261;-74
2022/01/30 05:33:00;;;;;;;0.70;0.60;;;;;;;5.46;76.75;97485.88;6252285;28;20758;-74
2022/01/30 05:36:14;;;;;;;1.20;0.63;;;;;;;5.38;77.55;97500.41;6276958;28;20231;-74
2022/01/30 05:39:26;;;;;;;0.50;0.40;;;;;;;5.35;78.09;97477.03;6261650;28;20237;-74
2022/01/30 05:42:47;;;;;;;0.53;0.50;;;;;;;5.27;77.82;97481.91;6277645;28;20673;-75
2022/01/30 05:46:16;;;;;;;0.30;0.30;;;;;;;5.24;77.86;97493.41;6274780;28;20368;-74
2022/01/30 05:49:31;;;;;;;2.47;0.30;;;;;;;5.08;77.04;97498.75;6259155;28;20234;-74
2022/01/30 05:52:50;;;;;;;0.77;0.60;;;;;;;4.97;75.92;97493.31;6258381;28;20238;-75
2022/01/30 05:56:11;;;;;;;2.53;0.60;;;;;;;5.03;73.57;97516.47;6243024;28;20238;-74
2022/01/30 05:59:13;;;;;;;0.83;0.50;;;;;;;5.20;70.75;97515.44;6258620;28;20654;-75
2022/01/30 06:02:34;;;;;;;0.80;0.40;;;;;;;5.26;68.36;97501.16;6262947;28;20269;-73
2022/01/30 06:05:36;;;;;;;1.20;0.80;;;;;;;5.25;68.90;97516.00;6258994;28;20629;-74
2022/01/30 06:08:42;;;;;;;2.43;0.60;;;;;;;5.33;66.45;97478.91;6276014;28;20233;-73
2022/01/30 06:11:47;;;;;;;2.83;0.70;;;;;;;5.35;65.69;97493.56;6277383;28;20227;-74
2022/01/30 06:14:51;;;;;;;3.20;1.10;;;;;;;5.32;65.17;97492.91;6259392;28;20226;-74
2022/01/30 06:17:57;;;;;;;3.50;1.17;;;;;;;5.29;64.68;97498.34;6258310;28;20318;-74
2022/01/30 06:21:17;;;;;;;6.67;1.13;;;;;;;5.26;64.29;97496.75;6274962;28;20231;-74
2022/01/30 06:24:22;;;;;;;2.17;0.90;;;;;;;5.24;64.38;97500.41;6276355;28;20227;-73
2022/01/30 06:27:39;;;;;;;2.33;1.00;;;;;;;5.27;62.68;97493.22;6276583;28;20819;-73
2022/01/30 06:31:16;;;;;;;2.30;1.00;;;;;;;5.28;62.85;97486.19;6181731;28;20238;-75
2022/01/30 06:34:19;;;;;;;2.70;0.90;;;;;;;5.26;64.11;97501.16;6281234;28;20222;-74
2022/01/30 06:37:42;;;;;;;3.33;1.20;;;;;;;5.12;64.60;97488.91;6275644;28;20276;-74
2022/01/30 06:41:02;;;;;;;2.50;1.27;;;;;;;5.16;63.28;97493.88;6260161;28;20230;-74
2022/01/30 06:44:23;;;;;;;4.73;0.97;;;;;;;5.16;64.80;97522.66;6261042;28;20586;-75
2022/01/30 06:47:44;;;;;;;2.13;1.07;;;;;;;5.25;63.66;97528.25;6274863;28;20238;-74
2022/01/30 06:51:05;;;;;;;3.37;1.13;;;;;;;5.20;64.75;97507.59;6259496;28;20211;-75
2022/01/30 06:54:26;;;;;;;4.63;0.83;;;;;;;5.13;66.98;97509.75;6275576;28;20226;-74
2022/01/30 06:57:46;;;;;;;1.87;0.80;;;;;;;5.06;66.28;97503.22;6275306;28;20219;-75
2022/01/30 07:01:07;;;;;;;4.40;1.13;;;;;;;5.03;67.80;97502.56;6275681;28;20230;-74
2022/01/30 07:04:12;;;;;;;5.90;1.53;;;;;;;5.07;66.71;97498.81;6274830;28;20736;-74
2022/01/30 07:07:32;;;;;;;3.57;1.17;;;;;;;5.11;66.63;97508.16;6276879;28;20238;-74
2022/01/30 07:10:34;;;;;;;3.57;1.20;;;;;;;5.10;67.83;97503.84;6260522;28;20257;-73
2022/01/30 07:13:37;;;;;;;5.37;2.00;;;;;;;5.07;68.40;97504.91;6274953;28;20585;-74
2022/01/30 07:16:39;;;;;;;2.77;1.37;;;;;;;5.16;67.63;97508.72;6274656;28;20616;-74
2022/01/30 07:19:41;;;;;;;3.23;1.17;;;;;;;5.12;68.18;97520.28;6275091;28;20237;-73
2022/01/30 07:22:43;;;;;;;3.10;1.27;;;;;;;5.06;68.42;97534.59;6256716;28;20233;-74
2022/01/30 07:25:45;;;;;;;2.83;1.10;;;;;;;4.98;69.02;97536.84;6240178;28;20690;-74
2022/01/30 07:28:47;;;;;;;2.00;1.10;;;;;;;4.91;69.56;97535.50;6273324;28;20751;-74
2022/01/30 07:31:49;;;;;;;3.77;1.10;;;;;;;4.97;67.96;97550.84;6275005;28;20332;-74
2022/01/30 07:34:51;;;;;;;2.57;1.03;;;;;;;5.03;68.46;97552.25;6256971;28;20307;-74
2022/01/30 07:37:53;;;;;;;1.33;0.80;;;;;;;5.01;69.02;97551.47;6275815;28;20222;-74
2022/01/30 07:40:55;;;;;;;2.23;1.20;;;;;;;4.94;68.45;97543.19;6275199;28;20313;-74
2022/01/30 07:43:57;;;;;;;2.17;0.80;;;;;;;4.85;69.19;97541.13;6274868;28;20288;-75
2022/01/30 07:47:02;;;;;;;2.13;0.80;;;;;;;4.76;69.73;97554.72;6258411;28;20335;-74
2022/01/30 07:50:04;;;;;;;3.40;0.67;;;;;;;4.61;70.12;97559.06;6274502;28;20240;-75
2022/01/30 07:53:06;;;;;;;2.73;1.00;;;;;;;4.48;71.42;97568.56;6274249;28;20550;-75
2022/01/30 07:56:08;;;;;;;1.37;0.63;;;;;;;4.57;69.81;97562.81;6257461;28;20240;-75
2022/01/30 07:59:10;;;;;;;1.00;0.90;;;;;;;4.76;69.66;97567.81;6274526;28;20222;-75
2022/01/30 08:02:12;;;;;;;3.40;1.27;;;;;;;4.78;67.68;97579.03;6274440;28;20264;-75
2022/01/30 08:05:15;;;;;;;2.80;0.90;;;;;;;4.79;67.19;97539.69;6276443;28;20321;-75
2022/01/30 08:08:17;;;;;;;3.37;0.80;;;;;;;4.78;67.42;97555.50;6275049;28;20231;-74
2022/01/30 08:11:18;;;;;;;2.13;1.00;;;;;;;4.86;67.46;97562.88;6275618;28;20229;-75
2022/01/30 08:14:21;;;;;;;3.17;1.10;;;;;;;4.97;67.19;97563.09;6274194;28;20515;-73
2022/01/30 08:17:23;;;;;;;2.30;0.97;;;;;;;5.07;65.25;97566.81;6274141;28;20226;-75
2022/01/30 08:20:27;;;;;;;3.47;1.20;;;;;;;5.12;64.82;97549.91;6257506;28;20604;-75
2022/01/30 08:23:29;;;;;;;2.57;1.40;;;;;;;5.17;63.33;97571.41;6278030;28;20219;-74
2022/01/30 08:26:31;;;;;;;4.07;1.07;;;;;;;5.30;61.34;97566.25;6261957;28;20233;-75
2022/01/30 08:29:38;;;;;;;4.90;1.40;;;;;;;5.33;60.77;97568.69;6278743;28;20269;-75
2022/01/30 08:32:42;;;;;;;4.33;1.20;;;;;;;5.42;58.89;97606.53;6266872;28;20266;-75
2022/01/30 08:35:47;;;;;;;5.00;1.40;;;;;;;5.57;54.27;97595.16;6277399;28;20248;-73
2022/01/30 08:38:50;;;;;;;5.27;1.10;;;;;;;5.59;53.51;97592.44;6255014;28;20238;-75
2022/01/30 08:41:52;;;;;;;3.43;1.10;;;;;;;5.56;49.36;97596.09;6252925;28;20241;-74
2022/01/30 08:44:54;;;;;;;6.77;1.13;;;;;;;5.73;50.03;97572.31;6272518;28;20230;-75
2022/01/30 08:47:56;;;;;;;4.60;0.83;;;;;;;5.72;52.07;97573.25;6248039;28;20231;-74
2022/01/30 08:50:58;;;;;;;2.40;1.17;;;;;;;5.66;51.65;97591.97;6261462;28;20710;-74
2022/01/30 08:54:00;;;;;;;3.33;0.90;;;;;;;5.89;50.96;97573.03;6265976;28;20242;-75
2022/01/30 08:57:02;;;;;;;3.97;1.13;;;;;;;6.18;51.18;97549.41;6274448;28;20729;-75
2022/01/30 09:00:10;;;;;;;5.20;1.40;;;;;;;6.31;50.97;97579.09;6275264;28;20253;-74
2022/01/30 09:03:14;;;;;;;3.97;1.30;;;;;;;6.30;51.34;97559.06;6273754;28;20238;-75
2022/01/30 09:06:16;;;;;;;3.67;1.60;;;;;;;6.10;51.67;97567.38;6277521;28;20210;-72
2022/01/30 09:09:18;;;;;;;3.23;1.10;;;;;;;5.99;50.94;97565.44;6262052;28;20689;-73
2022/01/30 09:12:20;;;;;;;6.37;1.57;;;;;;;6.17;52.55;97566.06;6277765;28;20287;-67
2022/01/30 09:15:22;;;;;;;3.97;1.50;;;;;;;6.13;52.32;97565.41;6268342;28;20681;-73
2022/01/30 09:18:26;;;;;;;4.33;1.20;;;;;;;6.17;52.60;97566.06;6262167;28;20239;-74
2022/01/30 09:21:28;;;;;;;2.67;1.17;;;;;;;6.20;52.11;97574.56;6271914;28;20222;-73
2022/01/30 09:24:31;;;;;;;2.67;0.90;;;;;;;6.35;53.01;97577.97;6252588;28;20345;-72
2022/01/30 09:27:33;;;;;;;3.47;1.27;;;;;;;6.47;52.71;97569.31;6261362;28;20226;-74
2022/01/30 09:30:35;;;;;;;8.53;1.40;;;;;;;6.33;52.23;97584.25;6257905;28;20241;-74
2022/01/30 09:33:37;;;;;;;4.13;1.13;;;;;;;6.30;52.44;97575.63;6267881;28;20230;-73
2022/01/30 09:36:39;;;;;;;5.17;1.30;;;;;;;6.25;52.63;97579.50;6266763;28;20261;-74
2022/01/30 09:39:40;;;;;;;5.87;1.67;;;;;;;6.11;51.44;97567.28;6269331;28;20229;-74
2022/01/30 09:42:45;;;;;;;2.67;1.13;;;;;;;6.09;51.85;97566.53;6260362;28;20599;-74
2022/01/30 09:45:47;;;;;;;3.37;1.10;;;;;;;6.04;52.49;97571.25;6265376;28;20211;-74
2022/01/30 09:48:50;;;;;;;3.23;1.20;;;;;;;6.19;51.48;97578.09;6247378;28;20227;-74
2022/01/30 09:51:53;;;;;;;3.73;1.33;;;;;;;6.36;52.07;97600.63;6257693;28;20223;-74
2022/01/30 09:54:55;;;;;;;4.97;1.20;;;;;;;6.31;50.57;97589.59;6272009;28;20231;-74
2022/01/30 09:57:57;;;;;;;4.83;1.37;;;;;;;6.29;53.01;97594.91;6268100;28;20219;-74
2022/01/30 10:00:59;;;;;;;2.07;1.17;;;;;;;6.29;54.17;97591.47;6248481;28;20227;-72
2022/01/30 10:40:51;;;;;;;4.23;1.33;;;;;;;6.48;49.51;97610.31;5787373;28;20257;-72
2022/01/30 10:44:07;;;;;;;6.40;1.27;;;;;;;6.39;50.84;97639.72;6273705;28;20325;-71
2022/01/30 10:47:09;;;;;;;3.63;1.10;;;;;;;6.28;49.18;97663.19;6272446;28;20715;-71
2022/01/30 10:50:18;;;;;;;4.00;1.63;;;;;;;6.19;50.20;97642.78;6260044;28;20246;-73
2022/01/30 10:53:23;;;;;;;2.67;1.10;;;;;;;6.05;49.79;97653.31;6273547;28;20260;-72
2022/01/30 10:56:27;;;;;;;8.37;1.37;;;;;;;5.97;49.99;97647.69;6257924;28;20345;-72
2022/01/30 10:59:29;;;;;;;4.10;1.23;;;;;;;5.92;49.94;97656.69;6257905;28;20745;-73
2022/01/30 11:02:38;;;;;;;6.23;1.50;;;;;;;5.81;50.87;97656.47;6246214;28;20687;-72
2022/01/30 11:05:59;;;;;;;4.80;1.10;;;;;;;5.72;53.11;97662.25;6274798;28;20219;-72
2022/01/30 11:09:06;;;;;;;6.07;1.50;;;;;;;5.67;53.00;97645.16;6265106;28;20655;-71
2022/01/30 11:12:13;;;;;;;6.77;1.77;;;;;;;5.60;53.23;97654.31;6259236;28;20689;-72
2022/01/30 11:15:36;;;;;;;6.90;1.20;;;;;;;5.63;53.35;97643.66;6271011;28;20239;-72
2022/01/30 11:18:37;;;;;;;3.53;1.23;;;;;;;5.61;53.51;97642.91;6272402;28;20223;-71
2022/01/30 11:21:40;;;;;;;5.63;1.47;;;;;;;5.67;52.14;97642.56;6264098;28;20250;-72
2022/01/30 11:24:49;;;;;;;4.60;1.33;;;;;;;5.65;52.17;97633.94;6270311;28;20602;-72
2022/01/30 11:27:51;;;;;;;4.50;1.47;;;;;;;5.73;53.23;97621.22;6250886;28;20595;-72
2022/01/30 11:31:16;;;;;;;5.53;1.23;;;;;;;5.81;52.95;97645.97;6272761;28;20776;-71
2022/01/30 11:34:18;;;;;;;6.47;1.33;;;;;;;5.85;52.21;97641.41;6244709;28;20241;-73
2022/01/30 11:37:27;;;;;;;8.07;1.63;;;;;;;5.98;52.01;97631.06;6264081;28;20245;-71
2022/01/30 11:40:29;;;;;;;4.40;1.20;;;;;;;6.33;50.95;97620.94;6268950;28;20242;-73
2022/01/30 11:43:31;;;;;;;2.70;1.20;;;;;;;6.53;50.38;97617.88;6247461;28;20594;-72
2022/01/30 11:46:33;;;;;;;6.27;1.53;;;;;;;6.77;49.92;97631.19;6265062;28;20231;-72
2022/01/30 11:50:02;;;;;;;5.57;1.43;;;;;;;6.77;47.50;97623.31;6264614;28;20222;-72
2022/01/30 11:53:12;;;;;;;5.97;1.50;;;;;;;6.68;48.04;97637.03;6266491;28;20265;-72
2022/01/30 11:56:31;;;;;;;4.57;1.40;;;;;;;6.78;48.77;97617.13;6252085;28;20218;-73
2022/01/30 11:59:38;;;;;;;5.80;1.30;;;;;;;6.97;48.17;97625.44;6267137;28;20316;-73
2022/01/30 12:02:40;;;;;;;4.30;1.23;;;;;;;6.99;47.71;97624.38;6270324;28;20597;-72
2022/01/30 12:05:42;;;;;;;4.50;1.30;;;;;;;7.15;46.46;97633.88;6265413;28;20716;-72
2022/01/30 12:08:49;;;;;;;3.33;1.40;;;;;;;6.82;47.13;97623.84;6252174;28;20239;-72
2022/01/30 12:11:59;;;;;;;6.60;1.50;;;;;;;6.60;47.41;97617.38;6261022;28;20233;-72
2022/01/30 12:15:02;;;;;;;6.57;1.53;;;;;;;6.50;47.61;97600.56;6240596;28;20653;-72
2022/01/30 12:18:44;;;;;;;5.97;1.73;;;;;;;6.31;45.82;97652.47;6268351;28;20715;-71
2022/01/30 12:21:46;;;;;;;5.93;1.47;;;;;;;6.12;46.15;97629.22;6265316;28;20654;-73
2022/01/30 12:24:50;;;;;;;3.87;1.07;;;;;;;6.06;46.51;97645.34;6278386;28;20737;-73
2022/01/30 12:27:55;;;;;;;3.77;1.10;;;;;;;6.04;47.47;97635.91;6279771;28;20714;-73
2022/01/30 12:30:57;;;;;;;8.83;1.67;;;;;;;6.02;47.35;97653.47;6260058;28;20230;-73
2022/01/30 12:34:15;;;;;;;4.30;1.50;;;;;;;5.88;47.23;97651.75;6278528;28;20226;-73
2022/01/30 12:37:22;;;;;;;7.50;1.37;;;;;;;5.89;46.45;97654.22;6278185;28;20240;-74
2022/01/30 12:40:24;;;;;;;2.10;0.90;;;;;;;5.92;48.26;97661.06;6282272;28;20702;-72
2022/01/30 12:43:31;;;;;;;3.67;1.37;;;;;;;5.81;47.58;97634.66;6281730;28;20262;-72
2022/01/30 12:46:40;;;;;;;6.30;1.30;;;;;;;5.74;47.11;97651.69;6259052;28;20695;-73
2022/01/30 12:49:48;;;;;;;7.80;1.50;;;;;;;5.73;47.53;97645.63;6278011;28;20787;-71
2022/01/30 12:52:52;;;;;;;5.63;1.70;;;;;;;5.73;45.96;97652.63;6259634;28;20765;-73
2022/01/30 12:55:55;;;;;;;7.83;1.77;;;;;;;5.77;47.24;97641.06;6260654;28;20230;-73
2022/01/30 12:59:06;;;;;;;5.90;1.80;;;;;;;5.70;47.42;97653.66;6277850;28;20226;-73
2022/01/30 13:02:10;;;;;;;11.07;1.70;;;;;;;5.75;47.29;97659.47;6277319;28;20333;-73
2022/01/30 13:05:13;;;;;;;6.23;1.77;;;;;;;5.73;47.25;97666.56;6277428;28;20231;-73
2022/01/30 13:08:15;;;;;;;4.83;1.37;;;;;;;5.63;46.97;97664.59;6277291;28;20605;-73
2022/01/30 13:11:26;;;;;;;6.90;1.47;;;;;;;5.50;47.46;97681.03;6277405;28;20280;-73
2022/01/30 13:14:41;;;;;;;5.90;1.30;;;;;;;5.46;48.08;97655.16;6276520;28;20227;-72
2022/01/30 13:17:43;;;;;;;5.43;1.50;;;;;;;5.44;48.02;97673.56;6259494;28;20243;-72
2022/01/30 13:20:46;;;;;;;4.23;1.83;;;;;;;5.43;48.30;97661.41;6281104;28;20333;-72
2022/01/30 13:23:48;;;;;;;5.80;1.20;;;;;;;5.41;48.96;97683.38;6276984;28;20732;-73
2022/01/30 13:26:56;;;;;;;5.43;1.53;;;;;;;5.38;49.10;97673.09;6276810;28;20271;-72
2022/01/30 13:29:59;;;;;;;6.97;1.50;;;;;;;5.36;48.42;97667.94;6277014;28;20796;-73
2022/01/30 13:33:01;;;;;;;4.50;1.50;;;;;;;5.29;49.94;97660.56;6258656;28;20332;-72
2022/01/30 13:36:03;;;;;;;5.23;1.53;;;;;;;5.24;49.52;97667.84;6277195;28;20281;-71
2022/01/30 13:39:10;;;;;;;4.93;1.37;;;;;;;5.20;49.45;97702.00;6257553;28;20246;-73
2022/01/30 13:48:44;;;;;;;3.83;1.20;;;;;;;5.22;49.19;97685.38;6276805;28;20745;-72
2022/01/30 13:51:46;;;;;;;5.40;1.97;;;;;;;5.17;49.56;97699.59;6275533;28;20323;-72
2022/01/30 13:55:00;;;;;;;7.07;1.23;;;;;;;5.16;48.47;97710.16;6257543;28;20230;-73
2022/01/30 13:58:03;;;;;;;3.67;1.53;;;;;;;5.13;48.46;97687.63;6277759;28;20230;-73
2022/01/30 14:01:10;;;;;;;4.07;1.40;;;;;;;5.11;49.32;97686.84;6276380;28;20243;-71
2022/01/30 14:04:12;;;;;;;5.93;1.53;;;;;;;5.07;49.75;97701.06;6258594;28;20284;-72
2022/01/30 14:07:24;;;;;;;5.67;1.50;;;;;;;4.99;51.33;97716.31;6276656;28;20344;-74
2022/01/30 14:10:32;;;;;;;3.97;1.20;;;;;;;4.97;50.16;97709.53;6276476;28;20714;-72
2022/01/30 14:13:42;;;;;;;4.70;1.53;;;;;;;4.99;49.82;97705.88;6276941;28;20329;-72
2022/01/30 14:16:59;;;;;;;5.60;2.00;;;;;;;5.02;48.75;97724.00;6276077;28;20303;-72
2022/01/30 14:20:06;;;;;;;5.10;1.40;;;;;;;5.05;49.37;97721.22;6258447;28;20315;-71
2022/01/30 14:23:12;;;;;;;8.07;1.50;;;;;;;5.01;49.80;97732.78;6257612;28;20753;-72
2022/01/30 14:26:24;;;;;;;5.27;1.47;;;;;;;4.99;48.84;97716.31;6257686;28;20226;-73
2022/01/30 14:29:30;;;;;;;5.50;1.60;;;;;;;4.99;48.41;97729.41;6275657;28;20739;-72
2022/01/30 14:32:34;;;;;;;4.87;1.67;;;;;;;5.02;48.46;97734.47;6276842;28;20288;-72
2022/01/30 14:35:37;;;;;;;6.27;1.83;;;;;;;5.03;48.72;97732.69;6276300;28;20325;-72
2022/01/30 14:38:43;;;;;;;7.93;1.60;;;;;;;4.97;50.40;97712.13;6275206;28;20694;-73
2022/01/30 14:41:46;;;;;;;4.73;1.77;;;;;;;4.95;50.18;97725.28;6258282;28;21034;-73
2022/01/30 14:44:48;;;;;;;4.13;1.23;;;;;;;4.94;50.48;97738.47;6257054;28;20222;-72
2022/01/30 14:47:50;;;;;;;8.60;1.37;;;;;;;4.96;50.15;97752.28;6276288;28;20222;-73
2022/01/30 14:50:52;;;;;;;6.90;1.50;;;;;;;4.93;49.69;97748.06;6258359;28;20379;-73
2022/01/30 14:53:54;;;;;;;6.63;1.47;;;;;;;4.94;49.60;97757.59;6275233;28;22060;-72
2022/01/30 14:56:58;;;;;;;4.47;1.00;;;;;;;4.93;49.70;97762.91;6276526;28;20237;-73
2022/01/30 15:00:00;;;;;;;1.77;1.17;;;;;;;4.87;52.04;97750.19;6274785;28;20237;-73
2022/01/30 15:03:03;;;;;;;4.20;1.03;;;;;;;4.81;50.53;97780.97;6275154;28;20950;-72
2022/01/30 15:06:06;;;;;;;2.83;0.90;;;;;;;4.81;50.88;97757.44;6275270;28;20222;-73
2022/01/30 15:09:08;;;;;;;6.73;1.33;;;;;;;4.74;52.01;97795.31;6275316;28;20602;-72
2022/01/30 15:12:12;;;;;;;9.90;1.63;;;;;;;4.70;52.53;97777.25;6274637;28;20329;-73
2022/01/30 15:15:15;;;;;;;4.83;1.83;;;;;;;4.67;52.64;97769.63;6256827;28;20210;-72
2022/01/30 15:18:22;;;;;;;4.97;1.30;;;;;;;4.61;53.07;97796.91;6275041;28;20693;-72
2022/01/30 15:21:25;;;;;;;6.10;1.30;;;;;;;4.60;53.43;97797.00;6256013;28;20237;-73
2022/01/30 15:24:27;;;;;;;5.90;1.70;;;;;;;4.60;52.78;97794.38;6274768;28;20681;-72
2022/01/30 15:27:28;;;;;;;7.47;1.70;;;;;;;4.60;53.33;97797.00;6275261;28;20690;-73
2022/01/30 15:30:31;;;;;;;5.40;1.20;;;;;;;4.56;53.01;97801.56;6277917;28;20546;-72
2022/01/30 15:33:33;;;;;;;7.87;1.70;;;;;;;4.60;52.65;97794.38;6279819;28;20354;-72
2022/01/30 15:36:36;;;;;;;4.17;1.57;;;;;;;4.53;52.65;97779.97;6280088;28;20604;-72
2022/01/30 15:39:38;;;;;;;6.20;1.63;;;;;;;4.48;53.79;97808.97;6280247;28;20230;-72
2022/01/30 15:42:44;;;;;;;7.37;1.33;;;;;;;4.44;53.15;97810.06;6280717;28;20242;-72
2022/01/30 15:49:10;;;;;;;9.87;1.60;;;;;;;4.41;53.17;97834.56;6280745;28;20283;-73
2022/01/30 15:52:12;;;;;;;9.60;2.03;;;;;;;4.43;52.03;97832.72;6279604;28;20234;-73
2022/01/30 15:55:14;;;;;;;6.83;1.23;;;;;;;4.50;52.24;97814.94;6262420;28;20260;-73
2022/01/30 15:58:16;;;;;;;4.00;1.50;;;;;;;4.40;53.48;97822.44;6279635;28;20238;-72
2022/01/30 16:01:18;;;;;;;3.80;1.07;;;;;;;4.36;53.50;97836.59;6279391;28;20230;-72
2022/01/30 16:04:21;;;;;;;3.57;1.30;;;;;;;4.37;52.83;97827.84;6279820;28;20232;-72
2022/01/30 16:07:24;;;;;;;6.20;1.83;;;;;;;4.38;52.38;97897.47;6277629;28;20803;-71
2022/01/30 16:10:32;;;;;;;3.07;1.07;;;;;;;4.45;51.01;97857.00;6262355;28;20741;-72
2022/01/30 16:17:10;;;;;;;6.00;1.90;;;;;;;4.48;51.21;97860.38;6279585;28;20227;-72
2022/01/30 16:20:12;;;;;;;6.93;1.20;;;;;;;4.44;51.57;97876.22;6277810;28;20230;-73
2022/01/30 16:23:14;;;;;;;4.97;1.30;;;;;;;4.41;50.50;97878.13;6261753;28;20230;-72